createdAt,value
2023-01-08T00:00:00.175Z,88.6
2023-01-08T00:05:00.110Z,88.6
2023-01-08T00:10:00.098Z,88.5
2023-01-08T00:15:00.314Z,88.7
2023-01-08T00:20:00.102Z,89.4
2023-01-08T00:25:00.105Z,89.9
2023-01-08T00:30:00.155Z,90.3
2023-01-08T00:35:00.220Z,90.2
2023-01-08T00:40:00.094Z,90.3
2023-01-08T00:45:00.138Z,90.6
2023-01-08T00:50:00.128Z,90.7
2023-01-08T00:55:00.216Z,90.5
2023-01-08T01:00:00.154Z,90.3
2023-01-08T01:05:00.153Z,90.1
2023-01-08T01:10:00.114Z,89.6
2023-01-08T01:15:00.211Z,88.7
2023-01-08T01:20:00.108Z,87.7
2023-01-08T01:25:00.123Z,86.6
2023-01-08T01:30:00.131Z,85.9
2023-01-08T01:35:00.239Z,85.5
2023-01-08T01:40:00.160Z,85.3
2023-01-08T01:45:00.119Z,84.9
2023-01-08T01:50:00.118Z,84.4
2023-01-08T01:55:00.288Z,84.5
2023-01-08T02:00:00.161Z,84.7
2023-01-08T02:05:00.131Z,84.7
2023-01-08T02:10:00.158Z,84.9
2023-01-08T02:15:00.155Z,85.1
2023-01-08T02:20:00.075Z,85.3
2023-01-08T02:25:00.108Z,85.3
2023-01-08T02:30:00.120Z,85.3
2023-01-08T02:35:00.223Z,85.2
2023-01-08T02:40:00.147Z,85.3
2023-01-08T02:45:00.095Z,85.4
2023-01-08T02:50:00.121Z,85.6
2023-01-08T02:55:00.207Z,85.8
2023-01-08T03:00:00.122Z,86
2023-01-08T03:05:00.111Z,86.2
2023-01-08T03:10:00.117Z,86.5
2023-01-08T03:15:00.149Z,86.6
2023-01-08T03:20:00.123Z,86.6
2023-01-08T03:25:00.095Z,86.5
2023-01-08T03:30:00.121Z,86.2
2023-01-08T03:35:00.220Z,86.3
2023-01-08T03:40:00.123Z,86
2023-01-08T03:45:00.115Z,86
2023-01-08T03:50:00.100Z,85.7
2023-01-08T03:55:00.230Z,85.5
2023-01-08T04:00:00.141Z,85
2023-01-08T04:05:00.111Z,84.6
2023-01-08T04:10:00.145Z,84.2
2023-01-08T04:15:00.235Z,83.3
2023-01-08T04:20:00.105Z,83.6
2023-01-08T04:25:00.112Z,82.6
2023-01-08T04:30:00.110Z,82.9
2023-01-08T04:35:00.124Z,82.1
2023-01-08T04:40:00.127Z,81.5
2023-01-08T04:45:00.115Z,81.5
2023-01-08T04:50:00.117Z,81
2023-01-08T04:55:00.240Z,80.8
2023-01-08T05:00:00.160Z,80.9
2023-01-08T05:05:00.102Z,81
2023-01-08T05:10:00.109Z,81.1
2023-01-08T05:15:00.123Z,81.3
2023-01-08T05:20:00.113Z,80.8
2023-01-08T05:25:00.131Z,81.4
2023-01-08T05:30:00.138Z,81.4
2023-01-08T05:35:00.131Z,81.5
2023-01-08T05:40:00.172Z,81.5
2023-01-08T05:45:00.103Z,80.7
2023-01-08T05:50:00.100Z,81.6
2023-01-08T05:55:00.296Z,81.6
2023-01-08T06:00:00.140Z,81.6
2023-01-08T06:05:00.119Z,81.4
2023-01-08T06:10:00.114Z,81.5
2023-01-08T06:15:00.236Z,81.6
2023-01-08T06:20:00.132Z,81.5
2023-01-08T06:25:00.107Z,81.5
2023-01-08T06:30:00.142Z,81.6
2023-01-08T06:35:00.205Z,81.6
2023-01-08T06:40:00.109Z,81.6
2023-01-08T06:45:00.114Z,81.7
2023-01-08T06:50:00.125Z,81.7
2023-01-08T06:55:00.224Z,81.7
2023-01-08T07:00:00.127Z,81.8
2023-01-08T07:05:00.102Z,81.9
2023-01-08T07:10:00.147Z,81.9
2023-01-08T07:15:00.253Z,81.8
2023-01-08T07:20:00.128Z,81.8
2023-01-08T07:25:00.115Z,81.9
2023-01-08T07:30:00.138Z,81.8
2023-01-08T07:35:00.218Z,81.9
2023-01-08T07:40:00.114Z,81.9
2023-01-08T07:45:00.141Z,82
2023-01-08T07:50:00.118Z,82
2023-01-08T07:55:00.228Z,82.1
2023-01-08T08:00:00.145Z,82
2023-01-08T08:05:00.123Z,82
2023-01-08T08:10:00.124Z,82
2023-01-08T08:15:00.246Z,81.9
2023-01-08T08:20:00.105Z,81.9
2023-01-08T08:25:00.109Z,82
2023-01-08T08:30:00.137Z,82.1
2023-01-08T08:35:00.204Z,82
2023-01-08T08:40:00.127Z,82.1
2023-01-08T08:45:00.097Z,82.3
2023-01-08T08:50:00.131Z,82.5
2023-01-08T08:55:00.226Z,82.6
2023-01-08T09:00:01.231Z,83.6
2023-01-08T09:05:00.102Z,85.7
2023-01-08T09:10:00.133Z,86.6
2023-01-08T09:15:00.234Z,86.9
2023-01-08T09:20:00.136Z,87.5
2023-01-08T09:25:00.103Z,87.6
2023-01-08T09:30:00.162Z,88
2023-01-08T09:35:00.202Z,88.5
2023-01-08T09:40:02.339Z,88.9
2023-01-08T09:45:00.165Z,89
2023-01-08T09:50:00.134Z,88.7
2023-01-08T09:55:00.220Z,88.2
2023-01-08T10:00:00.156Z,87.6
2023-01-08T10:05:00.145Z,87.5
2023-01-08T10:10:00.120Z,87
2023-01-08T10:15:00.222Z,85.9
2023-01-08T10:20:00.124Z,85
2023-01-08T10:25:00.122Z,84.8
2023-01-08T10:30:00.139Z,84
2023-01-08T10:35:00.228Z,83.8
2023-01-08T10:40:00.124Z,83.1
2023-01-08T10:45:00.115Z,83.1
2023-01-08T10:50:00.181Z,83
2023-01-08T10:55:00.120Z,82
2023-01-08T11:00:00.122Z,81.7
2023-01-08T11:05:00.106Z,81.1
2023-01-08T11:10:00.107Z,81.5
2023-01-08T11:15:00.128Z,81.6
2023-01-08T11:20:00.160Z,81.4
2023-01-08T11:25:00.107Z,81
2023-01-08T11:30:00.128Z,80.9
2023-01-08T11:35:00.125Z,80.9
2023-01-08T11:40:00.094Z,80.7
2023-01-08T11:45:00.128Z,80.3
2023-01-08T11:50:00.129Z,80.4
2023-01-08T11:55:00.102Z,80.2
2023-01-08T12:00:00.151Z,80
2023-01-08T12:05:00.131Z,79.9
2023-01-08T12:10:00.134Z,80
2023-01-08T12:15:00.107Z,79.9
2023-01-08T12:20:00.153Z,80
2023-01-08T12:25:00.103Z,80.1
2023-01-08T12:30:00.145Z,79.7
2023-01-08T12:35:00.123Z,79.7
2023-01-08T12:40:00.129Z,79.7
2023-01-08T12:45:00.130Z,80
2023-01-08T12:50:00.143Z,80.1
2023-01-08T12:55:00.151Z,80.2
2023-01-08T13:00:00.103Z,80.4
2023-01-08T13:05:00.123Z,80.5
2023-01-08T13:10:00.103Z,80.6
2023-01-08T13:15:00.139Z,80.8
2023-01-08T13:20:00.135Z,81
2023-01-08T13:25:02.193Z,81.3
2023-01-08T13:30:00.175Z,81.7
2023-01-08T13:35:00.138Z,81.9
2023-01-08T13:40:00.130Z,82.4
2023-01-08T13:45:00.136Z,83
2023-01-08T13:50:00.113Z,83.3
2023-01-08T13:55:00.128Z,83.4
2023-01-08T14:00:00.139Z,83.4
2023-01-08T14:05:00.146Z,83.5
2023-01-08T14:10:00.124Z,83.6
2023-01-08T14:15:00.151Z,83.7
2023-01-08T14:20:00.169Z,82.6
2023-01-08T14:25:00.131Z,83.3
2023-01-08T14:30:00.170Z,83.4
2023-01-08T14:35:00.166Z,83.5
2023-01-08T14:40:00.108Z,83.6
2023-01-08T14:45:00.118Z,83.5
2023-01-08T14:50:00.146Z,83.4
2023-01-08T14:55:00.164Z,83.1
2023-01-08T15:00:00.138Z,83
2023-01-08T15:05:00.161Z,82.5
2023-01-08T15:10:00.119Z,82.3
2023-01-08T15:15:00.132Z,82.5
2023-01-08T15:20:00.123Z,82.6
2023-01-08T15:25:00.115Z,82.6
2023-01-08T15:30:00.211Z,82.6
2023-01-08T15:35:00.180Z,82.8
2023-01-08T15:40:00.110Z,82.9
2023-01-08T15:45:00.139Z,82.2
2023-01-08T15:50:00.159Z,82.9
2023-01-08T15:55:00.120Z,83.2
2023-01-08T16:00:00.143Z,83.4
2023-01-08T16:05:00.152Z,83.6
2023-01-08T16:10:00.140Z,84
2023-01-08T16:15:00.125Z,84.7
2023-01-08T16:20:00.089Z,85.3
2023-01-08T16:25:00.129Z,85.6
2023-01-08T16:30:00.114Z,86.2
2023-01-08T16:35:00.133Z,86.6
2023-01-08T16:40:00.141Z,87.2
2023-01-08T16:45:00.118Z,87.3
2023-01-08T16:50:00.131Z,87.6
2023-01-08T16:55:00.135Z,88
2023-01-08T17:00:00.141Z,88.6
2023-01-08T17:05:00.140Z,88.8
2023-01-08T17:10:00.125Z,89.2
2023-01-08T17:15:00.157Z,89.6
2023-01-08T17:20:00.111Z,89.7
2023-01-08T17:25:00.125Z,90
2023-01-08T17:30:00.158Z,90.2
2023-01-08T17:35:00.128Z,90.3
2023-01-08T17:40:00.127Z,90.4
2023-01-08T17:45:00.107Z,90.7
2023-01-08T17:50:00.111Z,90.7
2023-01-08T17:55:00.137Z,90.7
2023-01-08T18:00:00.158Z,90.8
2023-01-08T18:05:00.103Z,90.8
2023-01-08T18:10:00.159Z,90.8
2023-01-08T18:15:00.109Z,90.8
2023-01-08T18:20:00.214Z,90.9
2023-01-08T18:25:00.100Z,90.9
2023-01-08T18:30:00.212Z,90.8
2023-01-08T18:35:00.130Z,90.9
2023-01-08T18:40:00.167Z,91
2023-01-08T18:45:00.111Z,91
2023-01-08T18:50:00.101Z,90.9
2023-01-08T18:55:00.169Z,91
2023-01-08T19:00:00.121Z,91
2023-01-08T19:05:00.089Z,91
2023-01-08T19:10:00.191Z,90.9
2023-01-08T19:15:00.117Z,90.9
2023-01-08T19:20:00.210Z,90.9
2023-01-08T19:25:00.087Z,90.8
2023-01-08T19:30:00.126Z,90.7
2023-01-08T19:35:00.168Z,90.7
2023-01-08T19:40:00.176Z,90.7
2023-01-08T19:45:00.111Z,90.7
2023-01-08T19:50:00.132Z,90.7
2023-01-08T19:55:00.143Z,90.7
2023-01-08T20:00:00.119Z,90.4
2023-01-08T20:05:00.121Z,90.6
2023-01-08T20:10:00.132Z,90.6
2023-01-08T20:15:00.138Z,90.6
2023-01-08T20:20:00.129Z,90.6
2023-01-08T20:25:00.101Z,90.4
2023-01-08T20:30:00.157Z,90.7
2023-01-08T20:35:00.204Z,90.7
2023-01-08T20:40:00.137Z,90.7
2023-01-08T20:45:00.117Z,90.8
2023-01-08T20:50:00.456Z,90.8
2023-01-08T20:55:00.145Z,90.9
2023-01-08T21:00:00.150Z,91
2023-01-08T21:05:00.128Z,91
2023-01-08T21:10:00.106Z,91.2
2023-01-08T21:15:00.125Z,91.2
2023-01-08T21:20:00.147Z,91.2
2023-01-08T21:25:00.114Z,91.2
2023-01-08T21:30:00.139Z,91.2
2023-01-08T21:35:00.121Z,91.2
2023-01-08T21:40:00.133Z,91.1
2023-01-08T21:45:00.100Z,91.2
2023-01-08T21:50:00.106Z,91.1
2023-01-08T21:55:00.167Z,91.2
2023-01-08T22:00:00.147Z,91.2
2023-01-08T22:05:00.116Z,91.2
2023-01-08T22:10:00.131Z,91.3
2023-01-08T22:15:00.131Z,91.3
2023-01-08T22:20:00.125Z,91.4
2023-01-08T22:25:00.109Z,91.4
2023-01-08T22:30:00.152Z,91.5
2023-01-08T22:35:00.117Z,91.5
2023-01-08T22:40:00.157Z,91.5
2023-01-08T22:45:00.128Z,91.5
2023-01-08T22:50:00.098Z,91.4
2023-01-08T22:55:00.137Z,91.2
2023-01-08T23:00:00.159Z,91.1
2023-01-08T23:05:00.108Z,91
2023-01-08T23:10:00.109Z,90.9
2023-01-08T23:15:00.160Z,90.8
2023-01-08T23:20:00.111Z,90.7
2023-01-08T23:25:00.141Z,90.7
2023-01-08T23:30:00.141Z,90.7
2023-01-08T23:35:00.127Z,90.6
2023-01-08T23:40:00.115Z,90.6
2023-01-08T23:45:00.092Z,90.6
2023-01-08T23:50:00.138Z,90.6
2023-01-08T23:55:00.129Z,90.7
